RCH1106 KCOS-KDEN
Flight info
| Callsign | RCH1106 |
|---|---|
| Flight time | 0h 17m |
| Altitude | 16000 |
| Route | ADANE V389 LUFSE/N0390F150 JEFEL/N0385F140 |
| Aircraft | A359/H-SDE2E3GHIJ3J4J5LM1ORWXY/LB1D1 |
Departure
| Time | 2026-05-04 00:39 |
|---|---|
| Airport | City of Colorado Springs Municipal Airport (KCOS) |
Arrival
| Time | 2026-05-04 00:57 |
|---|---|
| Airport | Denver International Airport (KDEN) |
| Time | Latitude | Longitude | Altitude | Speed | Heading |
|---|---|---|---|---|---|
| 2026-05-04 00:20 | 38.81690 | -104.70299 | 6200 ft | 0 kts | 277° |
| 2026-05-04 00:34 | 38.81690 | -104.70305 | 6200 ft | 3 kts | 277° |
| 2026-05-04 00:34 | 38.81696 | -104.70376 | 6200 ft | 10 kts | 269° |
| 2026-05-04 00:34 | 38.81666 | -104.70415 | 6200 ft | 8 kts | 201° |
| 2026-05-04 00:35 | 38.81604 | -104.70380 | 6200 ft | 14 kts | 134° |
| 2026-05-04 00:35 | 38.81516 | -104.70264 | 6200 ft | 22 kts | 134° |
| 2026-05-04 00:35 | 38.81389 | -104.70100 | 6200 ft | 29 kts | 135° |
| 2026-05-04 00:35 | 38.81233 | -104.69900 | 6200 ft | 33 kts | 135° |
| 2026-05-04 00:36 | 38.81067 | -104.69689 | 6200 ft | 34 kts | 135° |
| 2026-05-04 00:36 | 38.80896 | -104.69473 | 6200 ft | 35 kts | 135° |
| 2026-05-04 00:36 | 38.80842 | -104.69369 | 6200 ft | 11 kts | 92° |
| 2026-05-04 00:36 | 38.80894 | -104.69269 | 6200 ft | 13 kts | 43° |
| 2026-05-04 00:37 | 38.80969 | -104.69176 | 6200 ft | 18 kts | 45° |
| 2026-05-04 00:37 | 38.81075 | -104.69042 | 6200 ft | 24 kts | 45° |
| 2026-05-04 00:37 | 38.81210 | -104.68868 | 6200 ft | 31 kts | 45° |
| 2026-05-04 00:37 | 38.81343 | -104.68788 | 6200 ft | 33 kts | 6° |
| 2026-05-04 00:38 | 38.81537 | -104.68786 | 6201 ft | 19 kts | 5° |
| 2026-05-04 00:38 | 38.81600 | -104.68709 | 6201 ft | 11 kts | 82° |
| 2026-05-04 00:38 | 38.81591 | -104.68598 | 6203 ft | 6 kts | 117° |
| 2026-05-04 00:38 | 38.81541 | -104.68575 | 6202 ft | 11 kts | 176° |
| 2026-05-04 00:39 | 38.81308 | -104.68573 | 6202 ft | 78 kts | 181° |
| 2026-05-04 00:39 | 38.80426 | -104.68579 | 6202 ft | 171 kts | 180° |
| 2026-05-04 00:39 | 38.79017 | -104.68579 | 6568 ft | 228 kts | 181° |
| 2026-05-04 00:39 | 38.77296 | -104.68153 | 6878 ft | 275 kts | 157° |
| 2026-05-04 00:40 | 38.75425 | -104.67115 | 7214 ft | 308 kts | 156° |
| 2026-05-04 00:40 | 38.73386 | -104.66062 | 7575 ft | 318 kts | 153° |
| 2026-05-04 00:40 | 38.71776 | -104.64228 | 8525 ft | 308 kts | 123° |
| 2026-05-04 00:40 | 38.71065 | -104.61716 | 9467 ft | 301 kts | 94° |
| 2026-05-04 00:41 | 38.71391 | -104.59106 | 10228 ft | 299 kts | 64° |
| 2026-05-04 00:41 | 38.72672 | -104.57043 | 10898 ft | 299 kts | 34° |
| 2026-05-04 00:41 | 38.74521 | -104.55867 | 11656 ft | 298 kts | 16° |
| 2026-05-04 00:41 | 38.76520 | -104.55149 | 12385 ft | 299 kts | 11° |
| 2026-05-04 00:42 | 38.78564 | -104.54507 | 12859 ft | 310 kts | 12° |
| 2026-05-04 00:42 | 38.80719 | -104.53731 | 12985 ft | 335 kts | 15° |
| 2026-05-04 00:42 | 38.83005 | -104.52724 | 13034 ft | 360 kts | 19° |
| 2026-05-04 00:42 | 38.85207 | -104.51012 | 13058 ft | 383 kts | 39° |
| 2026-05-04 00:43 | 38.87106 | -104.48552 | 13051 ft | 393 kts | 48° |
| 2026-05-04 00:43 | 38.88788 | -104.45764 | 13047 ft | 396 kts | 53° |
| 2026-05-04 00:43 | 38.90566 | -104.43075 | 13028 ft | 394 kts | 43° |
| 2026-05-04 00:43 | 38.92760 | -104.40994 | 13021 ft | 392 kts | 26° |
| 2026-05-04 00:44 | 38.95312 | -104.39855 | 13023 ft | 388 kts | 10° |
| 2026-05-04 00:44 | 38.97977 | -104.39345 | 13010 ft | 387 kts | 4° |
| 2026-05-04 00:44 | 39.00623 | -104.39130 | 12998 ft | 386 kts | 1° |
| 2026-05-04 00:44 | 39.03303 | -104.39052 | 12983 ft | 385 kts | 359° |
| 2026-05-04 00:45 | 39.05978 | -104.39116 | 12979 ft | 384 kts | 354° |
| 2026-05-04 00:45 | 39.08587 | -104.39780 | 12964 ft | 382 kts | 341° |
| 2026-05-04 00:45 | 39.11016 | -104.41137 | 12948 ft | 378 kts | 332° |
| 2026-05-04 00:45 | 39.13339 | -104.42703 | 12946 ft | 376 kts | 331° |
| 2026-05-04 00:46 | 39.15638 | -104.44302 | 12542 ft | 373 kts | 331° |
| 2026-05-04 00:46 | 39.17916 | -104.45897 | 12075 ft | 373 kts | 330° |
| 2026-05-04 00:46 | 39.20191 | -104.47494 | 11917 ft | 372 kts | 330° |
| 2026-05-04 00:46 | 39.22465 | -104.49097 | 11895 ft | 372 kts | 330° |
| 2026-05-04 00:47 | 39.24737 | -104.50697 | 11883 ft | 371 kts | 330° |
| 2026-05-04 00:47 | 39.26999 | -104.52291 | 11859 ft | 371 kts | 330° |
| 2026-05-04 00:47 | 39.29263 | -104.53890 | 11844 ft | 370 kts | 330° |
| 2026-05-04 00:47 | 39.31523 | -104.55488 | 11855 ft | 370 kts | 330° |
| 2026-05-04 00:48 | 39.33781 | -104.57085 | 11872 ft | 370 kts | 330° |
| 2026-05-04 00:48 | 39.36018 | -104.58737 | 11879 ft | 370 kts | 324° |
| 2026-05-04 00:48 | 39.37792 | -104.61049 | 11897 ft | 364 kts | 304° |
| 2026-05-04 00:48 | 39.39147 | -104.63676 | 11835 ft | 341 kts | 309° |
| 2026-05-04 00:49 | 39.40948 | -104.65551 | 11628 ft | 327 kts | 330° |
| 2026-05-04 00:49 | 39.43024 | -104.66584 | 11374 ft | 317 kts | 349° |
| 2026-05-04 00:49 | 39.45183 | -104.66678 | 11216 ft | 305 kts | 360° |
| 2026-05-04 00:49 | 39.47236 | -104.66593 | 10730 ft | 288 kts | 360° |
| 2026-05-04 00:50 | 39.49226 | -104.66521 | 10211 ft | 287 kts | 359° |
| 2026-05-04 00:50 | 39.51188 | -104.66469 | 9989 ft | 269 kts | 359° |
| 2026-05-04 00:50 | 39.52966 | -104.66430 | 9965 ft | 245 kts | 358° |
| 2026-05-04 00:50 | 39.54645 | -104.66405 | 9966 ft | 235 kts | 358° |
| 2026-05-04 00:51 | 39.56204 | -104.66380 | 9954 ft | 215 kts | 358° |
| 2026-05-04 00:51 | 39.57673 | -104.66353 | 9962 ft | 208 kts | 358° |
| 2026-05-04 00:51 | 39.59111 | -104.66336 | 9881 ft | 206 kts | 358° |
| 2026-05-04 00:51 | 39.60524 | -104.66322 | 9427 ft | 202 kts | 358° |
| 2026-05-04 00:52 | 39.61922 | -104.66305 | 8822 ft | 201 kts | 358° |
| 2026-05-04 00:52 | 39.63319 | -104.66289 | 8298 ft | 200 kts | 358° |
| 2026-05-04 00:52 | 39.64701 | -104.66281 | 7741 ft | 197 kts | 358° |
| 2026-05-04 00:52 | 39.66066 | -104.66271 | 7234 ft | 195 kts | 358° |
| 2026-05-04 00:53 | 39.67395 | -104.66251 | 6991 ft | 182 kts | 358° |
| 2026-05-04 00:53 | 39.68591 | -104.66229 | 6954 ft | 162 kts | 358° |
| 2026-05-04 00:53 | 39.69676 | -104.66209 | 6947 ft | 153 kts | 357° |
| 2026-05-04 00:53 | 39.70734 | -104.66197 | 6958 ft | 153 kts | 356° |
| 2026-05-04 00:54 | 39.71796 | -104.66187 | 6957 ft | 153 kts | 356° |
| 2026-05-04 00:54 | 39.72864 | -104.66178 | 6963 ft | 154 kts | 356° |
| 2026-05-04 00:54 | 39.73931 | -104.66165 | 6961 ft | 153 kts | 357° |
| 2026-05-04 00:54 | 39.75011 | -104.66154 | 6943 ft | 155 kts | 356° |
| 2026-05-04 00:55 | 39.76089 | -104.66139 | 6794 ft | 154 kts | 357° |
| 2026-05-04 00:55 | 39.77145 | -104.66127 | 6640 ft | 153 kts | 358° |
| 2026-05-04 00:55 | 39.78202 | -104.66121 | 6469 ft | 152 kts | 357° |
| 2026-05-04 00:55 | 39.79265 | -104.66093 | 6299 ft | 151 kts | 357° |
| 2026-05-04 00:56 | 39.80309 | -104.66084 | 6102 ft | 148 kts | 356° |
| 2026-05-04 00:56 | 39.81321 | -104.66066 | 5901 ft | 143 kts | 355° |
| 2026-05-04 00:56 | 39.82287 | -104.66061 | 5686 ft | 135 kts | 357° |
| 2026-05-04 00:56 | 39.83203 | -104.66047 | 5477 ft | 127 kts | 356° |
| 2026-05-04 00:57 | 39.84022 | -104.66044 | 5434 ft | 109 kts | 357° |
| 2026-05-04 00:57 | 39.84652 | -104.66040 | 5406 ft | 59 kts | 360° |
| 2026-05-04 00:57 | 39.84967 | -104.66037 | 5396 ft | 42 kts | 0° |
| 2026-05-04 00:57 | 39.85234 | -104.66114 | 5396 ft | 35 kts | 332° |
| 2026-05-04 00:58 | 39.85278 | -104.66215 | 5393 ft | 6 kts | 236° |
| 2026-05-04 00:58 | 39.85238 | -104.66245 | 5392 ft | 8 kts | 198° |
| 2026-05-04 00:58 | 39.85173 | -104.66243 | 5392 ft | 13 kts | 178° |
| 2026-05-04 00:58 | 39.85047 | -104.66246 | 5402 ft | 22 kts | 180° |
| 2026-05-04 00:59 | 39.84859 | -104.66251 | 5400 ft | 31 kts | 179° |
| 2026-05-04 00:59 | 39.84620 | -104.66253 | 5411 ft | 37 kts | 181° |
| 2026-05-04 00:59 | 39.84340 | -104.66254 | 5416 ft | 43 kts | 180° |
| 2026-05-04 00:59 | 39.84031 | -104.66259 | 5417 ft | 45 kts | 181° |
| 2026-05-04 01:00 | 39.83719 | -104.66263 | 5421 ft | 45 kts | 181° |
| 2026-05-04 01:00 | 39.83409 | -104.66265 | 5438 ft | 44 kts | 180° |
| 2026-05-04 01:00 | 39.83108 | -104.66267 | 5447 ft | 43 kts | 180° |
| 2026-05-04 01:00 | 39.82860 | -104.66304 | 5449 ft | 18 kts | 229° |
| 2026-05-04 01:01 | 39.82846 | -104.66433 | 5447 ft | 17 kts | 269° |
| 2026-05-04 01:01 | 39.82844 | -104.66644 | 5440 ft | 29 kts | 271° |
| 2026-05-04 01:01 | 39.82850 | -104.66963 | 5424 ft | 41 kts | 270° |
| 2026-05-04 01:01 | 39.82851 | -104.67381 | 5403 ft | 51 kts | 270° |
| 2026-05-04 01:02 | 39.82870 | -104.67725 | 5393 ft | 8 kts | 316° |
| 2026-05-04 01:02 | 39.82932 | -104.67736 | 5393 ft | 14 kts | 0° |
| 2026-05-04 01:02 | 39.83013 | -104.67664 | 5393 ft | 13 kts | 74° |
| 2026-05-04 01:02 | 39.83019 | -104.67527 | 5394 ft | 19 kts | 94° |
| 2026-05-04 01:03 | 39.82981 | -104.67410 | 5391 ft | 2 kts | 171° |
| 2026-05-04 01:03 | 39.82941 | -104.67411 | 5392 ft | 9 kts | 180° |
| 2026-05-04 01:03 | 39.82933 | -104.67411 | 5392 ft | 0 kts | 181° |